sensor_id;sensor_type;location;lat;lon;timestamp;P1;durP1;ratioP1;P2;durP2;ratioP2
11269;SDS011;5692;48.956;9.200;2023-08-01T00:01:03;258.58;;;246.23;;
11269;SDS011;5692;48.956;9.200;2023-08-01T00:03:29;259.77;;;247.33;;
11269;SDS011;5692;48.956;9.200;2023-08-01T00:05:55;254.63;;;242.43;;
11269;SDS011;5692;48.956;9.200;2023-08-01T00:08:21;242.53;;;230.93;;
11269;SDS011;5692;48.956;9.200;2023-08-01T00:10:47;254.45;;;242.25;;
11269;SDS011;5692;48.956;9.200;2023-08-01T00:13:13;242.43;;;230.83;;
11269;SDS011;5692;48.956;9.200;2023-08-01T00:15:39;264.27;;;251.65;;
11269;SDS011;5692;48.956;9.200;2023-08-01T00:18:05;267.10;;;254.32;;
11269;SDS011;5692;48.956;9.200;2023-08-01T00:20:31;245.60;;;233.85;;
11269;SDS011;5692;48.956;9.200;2023-08-01T00:22:57;257.40;;;245.10;;
11269;SDS011;5692;48.956;9.200;2023-08-01T00:25:23;265.95;;;253.25;;
11269;SDS011;5692;48.956;9.200;2023-08-01T00:27:49;258.75;;;246.35;;
11269;SDS011;5692;48.956;9.200;2023-08-01T00:30:16;267.00;;;254.25;;
11269;SDS011;5692;48.956;9.200;2023-08-01T00:32:42;271.27;;;258.27;;
11269;SDS011;5692;48.956;9.200;2023-08-01T00:35:08;259.90;;;247.50;;
11269;SDS011;5692;48.956;9.200;2023-08-01T00:37:34;255.00;;;242.80;;
11269;SDS011;5692;48.956;9.200;2023-08-01T00:40:00;275.67;;;262.48;;
11269;SDS011;5692;48.956;9.200;2023-08-01T00:42:26;268.00;;;255.20;;
11269;SDS011;5692;48.956;9.200;2023-08-01T00:44:52;285.02;;;271.40;;
11269;SDS011;5692;48.956;9.200;2023-08-01T00:47:19;271.45;;;258.48;;
11269;SDS011;5692;48.956;9.200;2023-08-01T00:49:45;270.10;;;257.20;;
11269;SDS011;5692;48.956;9.200;2023-08-01T00:52:13;269.63;;;256.73;;
11269;SDS011;5692;48.956;9.200;2023-08-01T00:54:39;258.73;;;246.33;;
11269;SDS011;5692;48.956;9.200;2023-08-01T00:57:05;272.10;;;259.10;;
11269;SDS011;5692;48.956;9.200;2023-08-01T00:59:34;268.52;;;255.73;;
11269;SDS011;5692;48.956;9.200;2023-08-01T01:02:00;274.30;;;261.20;;
11269;SDS011;5692;48.956;9.200;2023-08-01T01:04:27;257.13;;;244.82;;
11269;SDS011;5692;48.956;9.200;2023-08-01T01:07:03;265.73;;;253.02;;
11269;SDS011;5692;48.956;9.200;2023-08-01T01:09:30;268.80;;;255.95;;
11269;SDS011;5692;48.956;9.200;2023-08-01T01:11:59;273.67;;;260.58;;
11269;SDS011;5692;48.956;9.200;2023-08-01T01:14:28;252.75;;;240.65;;
11269;SDS011;5692;48.956;9.200;2023-08-01T01:16:54;262.30;;;249.75;;
11269;SDS011;5692;48.956;9.200;2023-08-01T01:19:21;268.52;;;255.68;;
11269;SDS011;5692;48.956;9.200;2023-08-01T01:21:47;256.05;;;243.80;;
11269;SDS011;5692;48.956;9.200;2023-08-01T01:24:14;261.65;;;249.15;;
11269;SDS011;5692;48.956;9.200;2023-08-01T01:26:40;251.07;;;239.07;;
11269;SDS011;5692;48.956;9.200;2023-08-01T01:29:07;264.15;;;251.50;;
11269;SDS011;5692;48.956;9.200;2023-08-01T01:31:35;263.42;;;250.82;;
11269;SDS011;5692;48.956;9.200;2023-08-01T01:34:03;270.02;;;257.13;;
11269;SDS011;5692;48.956;9.200;2023-08-01T01:36:29;274.02;;;260.92;;
11269;SDS011;5692;48.956;9.200;2023-08-01T01:38:55;283.27;;;269.73;;
11269;SDS011;5692;48.956;9.200;2023-08-01T01:41:21;282.23;;;268.73;;
11269;SDS011;5692;48.956;9.200;2023-08-01T01:43:49;285.83;;;272.17;;
11269;SDS011;5692;48.956;9.200;2023-08-01T01:46:15;281.48;;;268.02;;
11269;SDS011;5692;48.956;9.200;2023-08-01T01:48:41;291.85;;;277.90;;
11269;SDS011;5692;48.956;9.200;2023-08-01T01:51:08;281.77;;;268.30;;
11269;SDS011;5692;48.956;9.200;2023-08-01T01:53:34;274.02;;;260.92;;
11269;SDS011;5692;48.956;9.200;2023-08-01T01:56:04;280.20;;;266.80;;
11269;SDS011;5692;48.956;9.200;2023-08-01T01:58:30;273.30;;;260.20;;
11269;SDS011;5692;48.956;9.200;2023-08-01T02:00:56;278.05;;;264.75;;
11269;SDS011;5692;48.956;9.200;2023-08-01T02:03:22;256.77;;;244.50;;
11269;SDS011;5692;48.956;9.200;2023-08-01T02:05:49;277.67;;;264.40;;
11269;SDS011;5692;48.956;9.200;2023-08-01T02:08:23;262.65;;;250.07;;
11269;SDS011;5692;48.956;9.200;2023-08-01T02:10:49;294.70;;;280.60;;
11269;SDS011;5692;48.956;9.200;2023-08-01T02:13:16;285.10;;;271.50;;
11269;SDS011;5692;48.956;9.200;2023-08-01T02:15:42;281.70;;;268.20;;
11269;SDS011;5692;48.956;9.200;2023-08-01T02:18:07;270.43;;;257.53;;
11269;SDS011;5692;48.956;9.200;2023-08-01T02:20:33;280.20;;;266.80;;
11269;SDS011;5692;48.956;9.200;2023-08-01T02:22:59;262.63;;;250.07;;
11269;SDS011;5692;48.956;9.200;2023-08-01T02:25:25;281.07;;;267.63;;
11269;SDS011;5692;48.956;9.200;2023-08-01T02:27:51;280.60;;;267.20;;
11269;SDS011;5692;48.956;9.200;2023-08-01T02:30:17;276.98;;;263.73;;
11269;SDS011;5692;48.956;9.200;2023-08-01T02:32:43;280.48;;;267.08;;
11269;SDS011;5692;48.956;9.200;2023-08-01T02:35:09;274.00;;;260.90;;
11269;SDS011;5692;48.956;9.200;2023-08-01T02:37:38;276.75;;;263.55;;
11269;SDS011;5692;48.956;9.200;2023-08-01T02:40:04;272.10;;;259.10;;
11269;SDS011;5692;48.956;9.200;2023-08-01T02:42:32;281.05;;;267.60;;
11269;SDS011;5692;48.956;9.200;2023-08-01T02:44:58;268.92;;;256.08;;
11269;SDS011;5692;48.956;9.200;2023-08-01T02:47:24;277.92;;;264.65;;
11269;SDS011;5692;48.956;9.200;2023-08-01T02:49:50;281.05;;;267.65;;
11269;SDS011;5692;48.956;9.200;2023-08-01T02:52:16;281.35;;;267.90;;
11269;SDS011;5692;48.956;9.200;2023-08-01T02:54:42;272.53;;;259.50;;
11269;SDS011;5692;48.956;9.200;2023-08-01T02:57:08;279.15;;;265.80;;
11269;SDS011;5692;48.956;9.200;2023-08-01T02:59:34;270.53;;;257.63;;
11269;SDS011;5692;48.956;9.200;2023-08-01T03:02:00;278.80;;;265.50;;
11269;SDS011;5692;48.956;9.200;2023-08-01T03:04:26;269.83;;;256.92;;
11269;SDS011;5692;48.956;9.200;2023-08-01T03:06:52;265.27;;;252.57;;
11269;SDS011;5692;48.956;9.200;2023-08-01T03:09:18;266.58;;;253.82;;
11269;SDS011;5692;48.956;9.200;2023-08-01T03:11:44;275.57;;;262.40;;
11269;SDS011;5692;48.956;9.200;2023-08-01T03:14:10;291.88;;;277.92;;
11269;SDS011;5692;48.956;9.200;2023-08-01T03:16:36;288.15;;;274.35;;
11269;SDS011;5692;48.956;9.200;2023-08-01T03:19:02;290.83;;;276.92;;
11269;SDS011;5692;48.956;9.200;2023-08-01T03:21:32;292.20;;;278.23;;
11269;SDS011;5692;48.956;9.200;2023-08-01T03:23:58;305.02;;;290.42;;
11269;SDS011;5692;48.956;9.200;2023-08-01T03:26:24;291.92;;;277.98;;
11269;SDS011;5692;48.956;9.200;2023-08-01T03:28:50;292.90;;;278.90;;
11269;SDS011;5692;48.956;9.200;2023-08-01T03:31:16;302.00;;;287.60;;
11269;SDS011;5692;48.956;9.200;2023-08-01T03:33:42;287.63;;;273.88;;
11269;SDS011;5692;48.956;9.200;2023-08-01T03:36:08;295.60;;;281.47;;
11269;SDS011;5692;48.956;9.200;2023-08-01T03:38:37;290.03;;;276.13;;
11269;SDS011;5692;48.956;9.200;2023-08-01T03:41:03;299.48;;;285.15;;
11269;SDS011;5692;48.956;9.200;2023-08-01T03:43:29;280.88;;;267.45;;
11269;SDS011;5692;48.956;9.200;2023-08-01T03:45:55;283.05;;;269.55;;
11269;SDS011;5692;48.956;9.200;2023-08-01T03:48:21;291.17;;;277.27;;
11269;SDS011;5692;48.956;9.200;2023-08-01T03:50:47;283.47;;;269.93;;
11269;SDS011;5692;48.956;9.200;2023-08-01T03:53:13;291.27;;;277.37;;
11269;SDS011;5692;48.956;9.200;2023-08-01T03:55:39;286.73;;;273.02;;
11269;SDS011;5692;48.956;9.200;2023-08-01T03:58:05;279.50;;;266.10;;
11269;SDS011;5692;48.956;9.200;2023-08-01T04:00:31;290.60;;;276.70;;
11269;SDS011;5692;48.956;9.200;2023-08-01T04:02:58;268.65;;;255.82;;
11269;SDS011;5692;48.956;9.200;2023-08-01T04:05:24;261.25;;;248.75;;
11269;SDS011;5692;48.956;9.200;2023-08-01T04:07:50;261.17;;;248.70;;
11269;SDS011;5692;48.956;9.200;2023-08-01T04:10:16;262.57;;;250.00;;
11269;SDS011;5692;48.956;9.200;2023-08-01T04:12:42;256.50;;;244.20;;
11269;SDS011;5692;48.956;9.200;2023-08-01T04:15:08;252.60;;;240.52;;
11269;SDS011;5692;48.956;9.200;2023-08-01T04:17:35;259.27;;;246.88;;
11269;SDS011;5692;48.956;9.200;2023-08-01T04:20:01;262.42;;;249.88;;
11269;SDS011;5692;48.956;9.200;2023-08-01T04:22:29;251.32;;;239.32;;
11269;SDS011;5692;48.956;9.200;2023-08-01T04:24:55;255.52;;;243.32;;
11269;SDS011;5692;48.956;9.200;2023-08-01T04:27:21;272.27;;;259.27;;
11269;SDS011;5692;48.956;9.200;2023-08-01T04:29:47;275.30;;;262.10;;
11269;SDS011;5692;48.956;9.200;2023-08-01T04:32:14;273.50;;;260.42;;
11269;SDS011;5692;48.956;9.200;2023-08-01T04:34:40;275.02;;;261.88;;
11269;SDS011;5692;48.956;9.200;2023-08-01T04:37:06;267.55;;;254.77;;
11269;SDS011;5692;48.956;9.200;2023-08-01T04:39:32;275.23;;;262.05;;
11269;SDS011;5692;48.956;9.200;2023-08-01T04:42:02;266.75;;;254.00;;
11269;SDS011;5692;48.956;9.200;2023-08-01T04:44:30;280.00;;;266.60;;
11269;SDS011;5692;48.956;9.200;2023-08-01T04:46:56;271.20;;;258.23;;
11269;SDS011;5692;48.956;9.200;2023-08-01T04:49:22;261.63;;;249.10;;
11269;SDS011;5692;48.956;9.200;2023-08-01T04:51:49;264.33;;;251.70;;
11269;SDS011;5692;48.956;9.200;2023-08-01T04:54:15;274.15;;;261.05;;
11269;SDS011;5692;48.956;9.200;2023-08-01T04:56:41;254.13;;;241.98;;
11269;SDS011;5692;48.956;9.200;2023-08-01T04:59:07;270.37;;;257.43;;
11269;SDS011;5692;48.956;9.200;2023-08-01T05:01:33;277.73;;;264.45;;
11269;SDS011;5692;48.956;9.200;2023-08-01T05:03:59;301.90;;;287.47;;
11269;SDS011;5692;48.956;9.200;2023-08-01T05:06:25;285.17;;;271.52;;
11269;SDS011;5692;48.956;9.200;2023-08-01T05:08:52;294.20;;;280.13;;
11269;SDS011;5692;48.956;9.200;2023-08-01T05:11:18;310.40;;;295.57;;
11269;SDS011;5692;48.956;9.200;2023-08-01T05:13:48;295.67;;;281.55;;
11269;SDS011;5692;48.956;9.200;2023-08-01T05:16:14;302.13;;;287.73;;
11269;SDS011;5692;48.956;9.200;2023-08-01T05:18:40;289.50;;;275.70;;
11269;SDS011;5692;48.956;9.200;2023-08-01T05:21:06;292.92;;;278.92;;
11269;SDS011;5692;48.956;9.200;2023-08-01T05:23:32;275.83;;;262.63;;
11269;SDS011;5692;48.956;9.200;2023-08-01T05:26:01;286.45;;;272.75;;
11269;SDS011;5692;48.956;9.200;2023-08-01T05:28:27;289.88;;;276.02;;
11269;SDS011;5692;48.956;9.200;2023-08-01T05:30:53;275.80;;;262.60;;
11269;SDS011;5692;48.956;9.200;2023-08-01T05:33:19;270.80;;;257.85;;
11269;SDS011;5692;48.956;9.200;2023-08-01T05:35:45;263.98;;;251.38;;
11269;SDS011;5692;48.956;9.200;2023-08-01T05:38:14;272.98;;;259.92;;
11269;SDS011;5692;48.956;9.200;2023-08-01T05:40:40;262.88;;;250.27;;
11269;SDS011;5692;48.956;9.200;2023-08-01T05:43:08;284.88;;;271.27;;
11269;SDS011;5692;48.956;9.200;2023-08-01T05:45:35;273.25;;;260.20;;
11269;SDS011;5692;48.956;9.200;2023-08-01T05:48:01;266.55;;;253.82;;
11269;SDS011;5692;48.956;9.200;2023-08-01T05:50:30;256.73;;;244.45;;
11269;SDS011;5692;48.956;9.200;2023-08-01T05:52:56;248.48;;;236.57;;
11269;SDS011;5692;48.956;9.200;2023-08-01T05:55:22;232.70;;;221.55;;
11269;SDS011;5692;48.956;9.200;2023-08-01T05:57:48;247.83;;;236.00;;
11269;SDS011;5692;48.956;9.200;2023-08-01T06:00:17;254.20;;;242.05;;
11269;SDS011;5692;48.956;9.200;2023-08-01T06:02:45;235.07;;;223.82;;
11269;SDS011;5692;48.956;9.200;2023-08-01T06:05:11;258.85;;;246.45;;
11269;SDS011;5692;48.956;9.200;2023-08-01T06:07:37;243.43;;;231.82;;
11269;SDS011;5692;48.956;9.200;2023-08-01T06:10:03;251.03;;;239.03;;
11269;SDS011;5692;48.956;9.200;2023-08-01T06:12:29;250.38;;;238.38;;
11269;SDS011;5692;48.956;9.200;2023-08-01T06:14:55;238.88;;;227.45;;
11269;SDS011;5692;48.956;9.200;2023-08-01T06:17:21;228.20;;;217.30;;
11269;SDS011;5692;48.956;9.200;2023-08-01T06:19:47;235.55;;;224.25;;
11269;SDS011;5692;48.956;9.200;2023-08-01T06:22:14;236.38;;;225.07;;
11269;SDS011;5692;48.956;9.200;2023-08-01T06:24:40;246.85;;;235.05;;
11269;SDS011;5692;48.956;9.200;2023-08-01T06:27:06;239.43;;;227.98;;
11269;SDS011;5692;48.956;9.200;2023-08-01T06:29:32;253.47;;;241.37;;
11269;SDS011;5692;48.956;9.200;2023-08-01T06:31:58;239.43;;;227.97;;
11269;SDS011;5692;48.956;9.200;2023-08-01T06:34:24;255.32;;;243.13;;
11269;SDS011;5692;48.956;9.200;2023-08-01T06:36:50;260.30;;;247.88;;
11269;SDS011;5692;48.956;9.200;2023-08-01T06:39:19;259.80;;;247.40;;
11269;SDS011;5692;48.956;9.200;2023-08-01T06:41:45;273.88;;;260.77;;
11269;SDS011;5692;48.956;9.200;2023-08-01T06:44:11;293.90;;;279.87;;
11269;SDS011;5692;48.956;9.200;2023-08-01T06:46:37;282.73;;;269.23;;
11269;SDS011;5692;48.956;9.200;2023-08-01T06:49:03;290.60;;;276.70;;
11269;SDS011;5692;48.956;9.200;2023-08-01T06:51:29;283.90;;;270.30;;
11269;SDS011;5692;48.956;9.200;2023-08-01T06:53:57;271.30;;;258.35;;
11269;SDS011;5692;48.956;9.200;2023-08-01T06:56:23;260.50;;;248.05;;
11269;SDS011;5692;48.956;9.200;2023-08-01T06:58:49;274.15;;;261.05;;
11269;SDS011;5692;48.956;9.200;2023-08-01T07:01:16;273.45;;;260.35;;
11269;SDS011;5692;48.956;9.200;2023-08-01T07:03:42;294.27;;;280.23;;
11269;SDS011;5692;48.956;9.200;2023-08-01T07:06:07;287.13;;;273.42;;
11269;SDS011;5692;48.956;9.200;2023-08-01T07:08:35;281.73;;;268.25;;
11269;SDS011;5692;48.956;9.200;2023-08-01T07:11:01;286.80;;;273.08;;
11269;SDS011;5692;48.956;9.200;2023-08-01T07:13:27;282.40;;;268.90;;
11269;SDS011;5692;48.956;9.200;2023-08-01T07:15:53;279.20;;;265.85;;
11269;SDS011;5692;48.956;9.200;2023-08-01T07:18:20;280.75;;;267.33;;
11269;SDS011;5692;48.956;9.200;2023-08-01T07:20:46;282.33;;;268.83;;
11269;SDS011;5692;48.956;9.200;2023-08-01T07:23:12;306.45;;;291.80;;
11269;SDS011;5692;48.956;9.200;2023-08-01T07:25:38;290.77;;;276.88;;
11269;SDS011;5692;48.956;9.200;2023-08-01T07:28:10;301.13;;;286.73;;
11269;SDS011;5692;48.956;9.200;2023-08-01T07:30:36;282.73;;;269.23;;
11269;SDS011;5692;48.956;9.200;2023-08-01T07:33:02;268.30;;;255.50;;
11269;SDS011;5692;48.956;9.200;2023-08-01T07:35:28;268.50;;;255.65;;
11269;SDS011;5692;48.956;9.200;2023-08-01T07:37:54;268.10;;;255.30;;
11269;SDS011;5692;48.956;9.200;2023-08-01T07:40:22;303.10;;;288.63;;
11269;SDS011;5692;48.956;9.200;2023-08-01T07:42:50;272.98;;;259.92;;
11269;SDS011;5692;48.956;9.200;2023-08-01T07:45:17;277.85;;;264.55;;
11269;SDS011;5692;48.956;9.200;2023-08-01T07:47:44;266.85;;;254.10;;
11269;SDS011;5692;48.956;9.200;2023-08-01T07:50:10;286.00;;;272.30;;
11269;SDS011;5692;48.956;9.200;2023-08-01T07:52:36;282.97;;;269.47;;
11269;SDS011;5692;48.956;9.200;2023-08-01T07:55:02;286.75;;;273.05;;
11269;SDS011;5692;48.956;9.200;2023-08-01T07:57:31;281.83;;;268.35;;
11269;SDS011;5692;48.956;9.200;2023-08-01T07:59:57;281.42;;;267.98;;
11269;SDS011;5692;48.956;9.200;2023-08-01T08:02:23;282.63;;;269.13;;
11269;SDS011;5692;48.956;9.200;2023-08-01T08:04:49;292.42;;;278.45;;
11269;SDS011;5692;48.956;9.200;2023-08-01T08:07:17;278.98;;;265.63;;
11269;SDS011;5692;48.956;9.200;2023-08-01T08:09:46;272.60;;;259.60;;
11269;SDS011;5692;48.956;9.200;2023-08-01T08:12:15;281.30;;;267.85;;
11269;SDS011;5692;48.956;9.200;2023-08-01T08:14:41;261.30;;;248.80;;
11269;SDS011;5692;48.956;9.200;2023-08-01T08:17:07;284.02;;;270.45;;
11269;SDS011;5692;48.956;9.200;2023-08-01T08:19:33;272.35;;;259.33;;
11269;SDS011;5692;48.956;9.200;2023-08-01T08:22:00;275.90;;;262.70;;
11269;SDS011;5692;48.956;9.200;2023-08-01T08:24:26;279.08;;;265.73;;
11269;SDS011;5692;48.956;9.200;2023-08-01T08:26:52;283.58;;;270.02;;
11269;SDS011;5692;48.956;9.200;2023-08-01T08:29:20;270.45;;;257.52;;
11269;SDS011;5692;48.956;9.200;2023-08-01T08:31:47;269.15;;;256.27;;
11269;SDS011;5692;48.956;9.200;2023-08-01T08:34:13;264.17;;;251.55;;
11269;SDS011;5692;48.956;9.200;2023-08-01T08:36:39;265.92;;;253.23;;
11269;SDS011;5692;48.956;9.200;2023-08-01T08:39:08;269.38;;;256.48;;
11269;SDS011;5692;48.956;9.200;2023-08-01T08:41:35;267.67;;;254.88;;
11269;SDS011;5692;48.956;9.200;2023-08-01T08:44:03;240.15;;;228.65;;
11269;SDS011;5692;48.956;9.200;2023-08-01T08:46:32;257.58;;;245.27;;
11269;SDS011;5692;48.956;9.200;2023-08-01T08:48:59;253.25;;;241.15;;
11269;SDS011;5692;48.956;9.200;2023-08-01T08:51:29;286.48;;;272.77;;
11269;SDS011;5692;48.956;9.200;2023-08-01T08:53:56;263.58;;;250.98;;
11269;SDS011;5692;48.956;9.200;2023-08-01T08:56:22;258.15;;;245.85;;
11269;SDS011;5692;48.956;9.200;2023-08-01T08:58:48;270.23;;;257.33;;
11269;SDS011;5692;48.956;9.200;2023-08-01T09:01:15;260.30;;;247.85;;
11269;SDS011;5692;48.956;9.200;2023-08-01T09:03:41;256.23;;;243.98;;
11269;SDS011;5692;48.956;9.200;2023-08-01T09:06:12;253.00;;;240.90;;
11269;SDS011;5692;48.956;9.200;2023-08-01T09:08:40;245.10;;;233.38;;
11269;SDS011;5692;48.956;9.200;2023-08-01T09:11:10;263.58;;;250.98;;
11269;SDS011;5692;48.956;9.200;2023-08-01T09:13:36;258.30;;;245.95;;
11269;SDS011;5692;48.956;9.200;2023-08-01T09:16:02;254.05;;;241.90;;
11269;SDS011;5692;48.956;9.200;2023-08-01T09:18:33;251.93;;;239.90;;
11269;SDS011;5692;48.956;9.200;2023-08-01T09:20:59;246.68;;;234.88;;
11269;SDS011;5692;48.956;9.200;2023-08-01T09:23:29;256.38;;;244.13;;
11269;SDS011;5692;48.956;9.200;2023-08-01T09:25:55;258.05;;;245.75;;
11269;SDS011;5692;48.956;9.200;2023-08-01T09:28:22;281.92;;;268.48;;
11269;SDS011;5692;48.956;9.200;2023-08-01T09:30:49;273.38;;;260.33;;
11269;SDS011;5692;48.956;9.200;2023-08-01T09:33:16;249.73;;;237.77;;
11269;SDS011;5692;48.956;9.200;2023-08-01T09:35:42;279.90;;;266.50;;
11269;SDS011;5692;48.956;9.200;2023-08-01T09:38:12;288.23;;;274.45;;
11269;SDS011;5692;48.956;9.200;2023-08-01T09:40:39;274.52;;;261.40;;
11269;SDS011;5692;48.956;9.200;2023-08-01T09:43:07;274.58;;;261.48;;
11269;SDS011;5692;48.956;9.200;2023-08-01T09:45:33;289.27;;;275.45;;
11269;SDS011;5692;48.956;9.200;2023-08-01T09:48:00;263.55;;;250.95;;
11269;SDS011;5692;48.956;9.200;2023-08-01T09:50:29;276.52;;;263.33;;
11269;SDS011;5692;48.956;9.200;2023-08-01T09:52:55;265.33;;;252.65;;
11269;SDS011;5692;48.956;9.200;2023-08-01T09:55:33;274.15;;;261.05;;
11269;SDS011;5692;48.956;9.200;2023-08-01T09:58:00;271.60;;;258.60;;
11269;SDS011;5692;48.956;9.200;2023-08-01T10:00:26;278.27;;;264.98;;
11269;SDS011;5692;48.956;9.200;2023-08-01T10:02:52;277.35;;;264.10;;
11269;SDS011;5692;48.956;9.200;2023-08-01T10:05:19;279.17;;;265.83;;
11269;SDS011;5692;48.956;9.200;2023-08-01T10:07:45;271.77;;;258.77;;
11269;SDS011;5692;48.956;9.200;2023-08-01T10:10:13;252.15;;;240.10;;
11269;SDS011;5692;48.956;9.200;2023-08-01T10:12:43;264.52;;;251.88;;
11269;SDS011;5692;48.956;9.200;2023-08-01T10:15:13;242.70;;;231.10;;
11269;SDS011;5692;48.956;9.200;2023-08-01T10:17:39;237.57;;;226.23;;
11269;SDS011;5692;48.956;9.200;2023-08-01T10:20:06;240.57;;;229.05;;
11269;SDS011;5692;48.956;9.200;2023-08-01T10:22:32;252.98;;;240.88;;
11269;SDS011;5692;48.956;9.200;2023-08-01T10:24:59;240.25;;;228.75;;
11269;SDS011;5692;48.956;9.200;2023-08-01T10:27:25;250.85;;;238.85;;
11269;SDS011;5692;48.956;9.200;2023-08-01T10:29:58;266.33;;;253.57;;
11269;SDS011;5692;48.956;9.200;2023-08-01T10:32:42;255.68;;;243.48;;
11269;SDS011;5692;48.956;9.200;2023-08-01T10:35:08;247.85;;;236.00;;
11269;SDS011;5692;48.956;9.200;2023-08-01T10:37:44;251.65;;;239.63;;
11269;SDS011;5692;48.956;9.200;2023-08-01T10:40:13;253.88;;;241.75;;
11269;SDS011;5692;48.956;9.200;2023-08-01T10:45:05;247.98;;;236.13;;
11269;SDS011;5692;48.956;9.200;2023-08-01T10:47:31;260.20;;;247.75;;
11269;SDS011;5692;48.956;9.200;2023-08-01T10:49:57;252.07;;;240.02;;
11269;SDS011;5692;48.956;9.200;2023-08-01T10:52:26;253.50;;;241.38;;
11269;SDS011;5692;48.956;9.200;2023-08-01T10:55:10;265.63;;;252.93;;
11269;SDS011;5692;48.956;9.200;2023-08-01T10:57:37;262.83;;;250.23;;
11269;SDS011;5692;48.956;9.200;2023-08-01T11:00:04;255.07;;;242.90;;
11269;SDS011;5692;48.956;9.200;2023-08-01T11:02:37;240.15;;;228.68;;
11269;SDS011;5692;48.956;9.200;2023-08-01T11:05:04;240.27;;;228.77;;
11269;SDS011;5692;48.956;9.200;2023-08-01T11:07:30;270.55;;;257.60;;
11269;SDS011;5692;48.956;9.200;2023-08-01T11:10:10;251.60;;;239.55;;
11269;SDS011;5692;48.956;9.200;2023-08-01T11:12:40;258.42;;;246.05;;
11269;SDS011;5692;48.956;9.200;2023-08-01T11:15:07;254.40;;;242.23;;
11269;SDS011;5692;48.956;9.200;2023-08-01T11:17:37;244.93;;;233.23;;
11269;SDS011;5692;48.956;9.200;2023-08-01T11:20:11;251.63;;;239.63;;
11269;SDS011;5692;48.956;9.200;2023-08-01T11:22:38;249.18;;;237.27;;
11269;SDS011;5692;48.956;9.200;2023-08-01T11:25:04;282.67;;;269.17;;
11269;SDS011;5692;48.956;9.200;2023-08-01T11:27:30;275.60;;;262.40;;
11269;SDS011;5692;48.956;9.200;2023-08-01T11:29:57;288.25;;;274.45;;
11269;SDS011;5692;48.956;9.200;2023-08-01T11:32:32;273.55;;;260.48;;
11269;SDS011;5692;48.956;9.200;2023-08-01T11:34:58;247.52;;;235.73;;
11269;SDS011;5692;48.956;9.200;2023-08-01T11:37:25;254.32;;;242.18;;
11269;SDS011;5692;48.956;9.200;2023-08-01T11:39:51;279.67;;;266.33;;
11269;SDS011;5692;48.956;9.200;2023-08-01T11:42:17;258.15;;;245.80;;
11269;SDS011;5692;48.956;9.200;2023-08-01T11:44:44;259.50;;;247.10;;
11269;SDS011;5692;48.956;9.200;2023-08-01T11:47:14;272.77;;;259.75;;
11269;SDS011;5692;48.956;9.200;2023-08-01T11:49:46;263.38;;;250.77;;
11269;SDS011;5692;48.956;9.200;2023-08-01T11:52:23;271.40;;;258.40;;
11269;SDS011;5692;48.956;9.200;2023-08-01T11:54:49;263.23;;;250.65;;
11269;SDS011;5692;48.956;9.200;2023-08-01T11:57:15;250.10;;;238.15;;
11269;SDS011;5692;48.956;9.200;2023-08-01T11:59:51;270.10;;;257.20;;
11269;SDS011;5692;48.956;9.200;2023-08-01T12:04:47;268.73;;;255.88;;
11269;SDS011;5692;48.956;9.200;2023-08-01T12:07:14;271.02;;;258.02;;
11269;SDS011;5692;48.956;9.200;2023-08-01T12:09:41;276.27;;;263.08;;
11269;SDS011;5692;48.956;9.200;2023-08-01T12:12:08;267.70;;;254.90;;
11269;SDS011;5692;48.956;9.200;2023-08-01T12:14:38;260.35;;;247.90;;
11269;SDS011;5692;48.956;9.200;2023-08-01T12:17:05;266.92;;;254.15;;
11269;SDS011;5692;48.956;9.200;2023-08-01T12:19:31;253.00;;;240.90;;
11269;SDS011;5692;48.956;9.200;2023-08-01T12:21:58;257.55;;;245.23;;
11269;SDS011;5692;48.956;9.200;2023-08-01T12:24:25;258.27;;;245.93;;
11269;SDS011;5692;48.956;9.200;2023-08-01T12:26:51;266.45;;;253.75;;
11269;SDS011;5692;48.956;9.200;2023-08-01T12:29:17;260.07;;;247.63;;
11269;SDS011;5692;48.956;9.200;2023-08-01T12:31:43;257.70;;;245.40;;
11269;SDS011;5692;48.956;9.200;2023-08-01T12:34:10;238.18;;;226.77;;
11269;SDS011;5692;48.956;9.200;2023-08-01T12:36:36;248.20;;;236.33;;
11269;SDS011;5692;48.956;9.200;2023-08-01T12:39:02;250.77;;;238.77;;
11269;SDS011;5692;48.956;9.200;2023-08-01T12:41:30;244.25;;;232.57;;
11269;SDS011;5692;48.956;9.200;2023-08-01T12:43:56;262.48;;;249.93;;
11269;SDS011;5692;48.956;9.200;2023-08-01T12:46:22;246.10;;;234.35;;
11269;SDS011;5692;48.956;9.200;2023-08-01T12:48:48;252.30;;;240.23;;
11269;SDS011;5692;48.956;9.200;2023-08-01T12:51:14;280.57;;;267.17;;
11269;SDS011;5692;48.956;9.200;2023-08-01T12:53:40;260.83;;;248.32;;
11269;SDS011;5692;48.956;9.200;2023-08-01T12:56:06;276.97;;;263.73;;
11269;SDS011;5692;48.956;9.200;2023-08-01T12:58:33;264.75;;;252.07;;
11269;SDS011;5692;48.956;9.200;2023-08-01T13:00:59;261.67;;;249.17;;
11269;SDS011;5692;48.956;9.200;2023-08-01T13:03:25;264.83;;;252.17;;
11269;SDS011;5692;48.956;9.200;2023-08-01T13:05:51;251.25;;;239.23;;
11269;SDS011;5692;48.956;9.200;2023-08-01T13:08:20;264.00;;;251.40;;
11269;SDS011;5692;48.956;9.200;2023-08-01T13:10:46;260.10;;;247.68;;
11269;SDS011;5692;48.956;9.200;2023-08-01T13:13:14;264.05;;;251.43;;
11269;SDS011;5692;48.956;9.200;2023-08-01T13:15:40;252.82;;;240.73;;
11269;SDS011;5692;48.956;9.200;2023-08-01T13:18:06;261.37;;;248.87;;
11269;SDS011;5692;48.956;9.200;2023-08-01T13:20:32;253.50;;;241.40;;
11269;SDS011;5692;48.956;9.200;2023-08-01T13:22:58;264.30;;;251.67;;
11269;SDS011;5692;48.956;9.200;2023-08-01T13:25:24;265.00;;;252.30;;
11269;SDS011;5692;48.956;9.200;2023-08-01T13:27:50;265.23;;;252.53;;
11269;SDS011;5692;48.956;9.200;2023-08-01T13:30:17;261.20;;;248.70;;
11269;SDS011;5692;48.956;9.200;2023-08-01T13:32:43;280.40;;;267.00;;
11269;SDS011;5692;48.956;9.200;2023-08-01T13:35:10;295.80;;;281.70;;
11269;SDS011;5692;48.956;9.200;2023-08-01T13:37:36;310.60;;;295.77;;
11269;SDS011;5692;48.956;9.200;2023-08-01T13:40:02;324.63;;;309.13;;
11269;SDS011;5692;48.956;9.200;2023-08-01T13:42:29;187.50;;;178.50;;
11269;SDS011;5692;48.956;9.200;2023-08-01T13:44:55;316.60;;;301.47;;
11269;SDS011;5692;48.956;9.200;2023-08-01T13:47:24;331.13;;;315.33;;
11269;SDS011;5692;48.956;9.200;2023-08-01T13:49:50;337.93;;;321.80;;
11269;SDS011;5692;48.956;9.200;2023-08-01T13:52:16;346.97;;;330.37;;
11269;SDS011;5692;48.956;9.200;2023-08-01T13:54:42;315.80;;;300.70;;
11269;SDS011;5692;48.956;9.200;2023-08-01T13:57:08;311.57;;;296.70;;
11269;SDS011;5692;48.956;9.200;2023-08-01T13:59:37;282.27;;;268.77;;
11269;SDS011;5692;48.956;9.200;2023-08-01T14:02:06;293.80;;;279.77;;
11269;SDS011;5692;48.956;9.200;2023-08-01T14:04:32;287.40;;;273.67;;
11269;SDS011;5692;48.956;9.200;2023-08-01T14:06:58;289.80;;;275.93;;
11269;SDS011;5692;48.956;9.200;2023-08-01T14:09:24;284.20;;;270.63;;
11269;SDS011;5692;48.956;9.200;2023-08-01T14:11:50;278.17;;;264.87;;